sensor_id;sensor_type;location;lat;lon;timestamp;temperature;humidity
6581;DHT22;3324;50.796;7.228;2024-01-06T00:00:18;8.60;99.90
6581;DHT22;3324;50.796;7.228;2024-01-06T00:02:44;8.60;99.90
6581;DHT22;3324;50.796;7.228;2024-01-06T00:05:14;8.70;99.90
6581;DHT22;3324;50.796;7.228;2024-01-06T00:07:40;8.60;99.90
6581;DHT22;3324;50.796;7.228;2024-01-06T00:10:06;8.60;99.90
6581;DHT22;3324;50.796;7.228;2024-01-06T00:12:31;8.60;99.90
6581;DHT22;3324;50.796;7.228;2024-01-06T00:14:57;8.60;99.90
6581;DHT22;3324;50.796;7.228;2024-01-06T00:17:22;8.60;99.90
6581;DHT22;3324;50.796;7.228;2024-01-06T00:19:48;8.70;99.90
6581;DHT22;3324;50.796;7.228;2024-01-06T00:22:17;8.60;99.90
6581;DHT22;3324;50.796;7.228;2024-01-06T00:24:42;8.60;99.90
6581;DHT22;3324;50.796;7.228;2024-01-06T00:27:08;8.70;99.90
6581;DHT22;3324;50.796;7.228;2024-01-06T00:29:33;8.60;99.90
6581;DHT22;3324;50.796;7.228;2024-01-06T00:31:59;8.70;99.90
6581;DHT22;3324;50.796;7.228;2024-01-06T00:34:24;8.60;99.90
6581;DHT22;3324;50.796;7.228;2024-01-06T00:36:51;8.50;99.90
6581;DHT22;3324;50.796;7.228;2024-01-06T00:39:16;8.60;99.90
6581;DHT22;3324;50.796;7.228;2024-01-06T00:41:42;8.70;99.90
6581;DHT22;3324;50.796;7.228;2024-01-06T00:44:07;8.60;99.90
6581;DHT22;3324;50.796;7.228;2024-01-06T00:46:33;8.60;99.90
6581;DHT22;3324;50.796;7.228;2024-01-06T00:48:58;8.70;99.90
6581;DHT22;3324;50.796;7.228;2024-01-06T00:51:24;8.60;99.90
6581;DHT22;3324;50.796;7.228;2024-01-06T00:53:50;8.70;99.90
6581;DHT22;3324;50.796;7.228;2024-01-06T00:56:15;8.70;99.90
6581;DHT22;3324;50.796;7.228;2024-01-06T00:58:42;8.70;99.90
6581;DHT22;3324;50.796;7.228;2024-01-06T01:01:08;8.70;99.90
6581;DHT22;3324;50.796;7.228;2024-01-06T01:03:33;8.70;99.90
6581;DHT22;3324;50.796;7.228;2024-01-06T01:05:59;8.60;99.90
6581;DHT22;3324;50.796;7.228;2024-01-06T01:08:24;8.70;99.90
6581;DHT22;3324;50.796;7.228;2024-01-06T01:10:50;8.60;99.90
6581;DHT22;3324;50.796;7.228;2024-01-06T01:13:15;8.60;99.90
6581;DHT22;3324;50.796;7.228;2024-01-06T01:15:40;8.60;99.90
6581;DHT22;3324;50.796;7.228;2024-01-06T01:18:06;8.60;99.90
6581;DHT22;3324;50.796;7.228;2024-01-06T01:20:31;8.50;99.90
6581;DHT22;3324;50.796;7.228;2024-01-06T01:22:57;8.50;99.90
6581;DHT22;3324;50.796;7.228;2024-01-06T01:25:22;8.60;99.90
6581;DHT22;3324;50.796;7.228;2024-01-06T01:27:48;8.50;99.90
6581;DHT22;3324;50.796;7.228;2024-01-06T01:30:13;8.50;99.90
6581;DHT22;3324;50.796;7.228;2024-01-06T01:32:39;8.50;99.90
6581;DHT22;3324;50.796;7.228;2024-01-06T01:35:05;8.40;99.90
6581;DHT22;3324;50.796;7.228;2024-01-06T01:37:31;8.40;99.90
6581;DHT22;3324;50.796;7.228;2024-01-06T01:39:56;8.40;99.90
6581;DHT22;3324;50.796;7.228;2024-01-06T01:42:22;8.40;99.90
6581;DHT22;3324;50.796;7.228;2024-01-06T01:44:47;8.40;99.90
6581;DHT22;3324;50.796;7.228;2024-01-06T01:47:13;8.40;99.90
6581;DHT22;3324;50.796;7.228;2024-01-06T01:49:44;8.40;99.90
6581;DHT22;3324;50.796;7.228;2024-01-06T01:52:10;8.40;99.90
6581;DHT22;3324;50.796;7.228;2024-01-06T01:54:36;8.40;99.90
6581;DHT22;3324;50.796;7.228;2024-01-06T01:57:02;8.50;99.90
6581;DHT22;3324;50.796;7.228;2024-01-06T01:59:27;8.40;99.90
6581;DHT22;3324;50.796;7.228;2024-01-06T02:01:53;8.40;99.90
6581;DHT22;3324;50.796;7.228;2024-01-06T02:04:18;8.40;99.90
6581;DHT22;3324;50.796;7.228;2024-01-06T02:06:44;8.30;99.90
6581;DHT22;3324;50.796;7.228;2024-01-06T02:09:09;8.40;99.90
6581;DHT22;3324;50.796;7.228;2024-01-06T02:11:35;8.40;99.90
6581;DHT22;3324;50.796;7.228;2024-01-06T02:14:00;8.30;99.90
6581;DHT22;3324;50.796;7.228;2024-01-06T02:16:26;8.30;99.90
6581;DHT22;3324;50.796;7.228;2024-01-06T02:18:52;8.30;99.90
6581;DHT22;3324;50.796;7.228;2024-01-06T02:21:17;8.30;99.90
6581;DHT22;3324;50.796;7.228;2024-01-06T02:23:45;8.30;99.90
6581;DHT22;3324;50.796;7.228;2024-01-06T02:26:10;8.30;99.90
6581;DHT22;3324;50.796;7.228;2024-01-06T02:28:36;8.30;99.90
6581;DHT22;3324;50.796;7.228;2024-01-06T02:31:02;8.30;99.90
6581;DHT22;3324;50.796;7.228;2024-01-06T02:36:03;8.30;99.90
6581;DHT22;3324;50.796;7.228;2024-01-06T02:38:29;8.40;99.90
6581;DHT22;3324;50.796;7.228;2024-01-06T02:40:54;8.40;99.90
6581;DHT22;3324;50.796;7.228;2024-01-06T02:43:20;8.30;99.90
6581;DHT22;3324;50.796;7.228;2024-01-06T02:45:45;8.30;99.90
6581;DHT22;3324;50.796;7.228;2024-01-06T02:48:12;8.30;99.90
6581;DHT22;3324;50.796;7.228;2024-01-06T02:50:37;8.30;99.90
6581;DHT22;3324;50.796;7.228;2024-01-06T02:53:03;8.30;99.90
6581;DHT22;3324;50.796;7.228;2024-01-06T02:55:28;8.30;99.90
6581;DHT22;3324;50.796;7.228;2024-01-06T02:57:53;8.30;99.90
6581;DHT22;3324;50.796;7.228;2024-01-06T03:00:19;8.30;99.90
6581;DHT22;3324;50.796;7.228;2024-01-06T03:02:51;8.30;99.90
6581;DHT22;3324;50.796;7.228;2024-01-06T03:05:35;8.40;99.90
6581;DHT22;3324;50.796;7.228;2024-01-06T03:08:02;8.30;99.90
6581;DHT22;3324;50.796;7.228;2024-01-06T03:10:28;8.30;99.90
6581;DHT22;3324;50.796;7.228;2024-01-06T03:12:53;8.30;99.90
6581;DHT22;3324;50.796;7.228;2024-01-06T03:15:19;8.30;99.90
6581;DHT22;3324;50.796;7.228;2024-01-06T03:17:44;8.30;99.90
6581;DHT22;3324;50.796;7.228;2024-01-06T03:20:10;8.30;99.90
6581;DHT22;3324;50.796;7.228;2024-01-06T03:22:35;8.30;99.90
6581;DHT22;3324;50.796;7.228;2024-01-06T03:25:01;8.30;99.90
6581;DHT22;3324;50.796;7.228;2024-01-06T03:27:27;8.30;99.90
6581;DHT22;3324;50.796;7.228;2024-01-06T03:29:53;8.30;99.90
6581;DHT22;3324;50.796;7.228;2024-01-06T03:32:18;8.30;99.90
6581;DHT22;3324;50.796;7.228;2024-01-06T03:34:44;8.30;99.90
6581;DHT22;3324;50.796;7.228;2024-01-06T03:37:09;8.30;99.90
6581;DHT22;3324;50.796;7.228;2024-01-06T03:39:35;8.30;99.90
6581;DHT22;3324;50.796;7.228;2024-01-06T03:42:00;8.40;99.90
6581;DHT22;3324;50.796;7.228;2024-01-06T03:44:26;8.50;99.90
6581;DHT22;3324;50.796;7.228;2024-01-06T03:46:58;8.50;99.90
6581;DHT22;3324;50.796;7.228;2024-01-06T03:49:28;8.50;99.90
6581;DHT22;3324;50.796;7.228;2024-01-06T03:51:54;8.40;99.90
6581;DHT22;3324;50.796;7.228;2024-01-06T03:54:19;8.30;99.90
6581;DHT22;3324;50.796;7.228;2024-01-06T03:56:45;8.20;99.90
6581;DHT22;3324;50.796;7.228;2024-01-06T03:59:10;8.20;99.90
6581;DHT22;3324;50.796;7.228;2024-01-06T04:01:36;8.20;99.90
6581;DHT22;3324;50.796;7.228;2024-01-06T04:04:04;8.20;99.90
6581;DHT22;3324;50.796;7.228;2024-01-06T04:06:30;8.20;99.90
6581;DHT22;3324;50.796;7.228;2024-01-06T04:08:57;8.10;99.90
6581;DHT22;3324;50.796;7.228;2024-01-06T04:11:22;8.10;99.90
6581;DHT22;3324;50.796;7.228;2024-01-06T04:13:48;8.20;99.90
6581;DHT22;3324;50.796;7.228;2024-01-06T04:16:13;8.20;99.90
6581;DHT22;3324;50.796;7.228;2024-01-06T04:18:39;8.20;99.90
6581;DHT22;3324;50.796;7.228;2024-01-06T04:21:04;8.20;99.90
6581;DHT22;3324;50.796;7.228;2024-01-06T04:23:34;8.20;99.90
6581;DHT22;3324;50.796;7.228;2024-01-06T04:26:00;8.20;99.90
6581;DHT22;3324;50.796;7.228;2024-01-06T04:28:25;8.20;99.90
6581;DHT22;3324;50.796;7.228;2024-01-06T04:30:51;8.30;99.90
6581;DHT22;3324;50.796;7.228;2024-01-06T04:33:16;8.30;99.90
6581;DHT22;3324;50.796;7.228;2024-01-06T04:35:42;8.30;99.90
6581;DHT22;3324;50.796;7.228;2024-01-06T04:38:07;8.30;99.90
6581;DHT22;3324;50.796;7.228;2024-01-06T04:40:34;8.20;99.90
6581;DHT22;3324;50.796;7.228;2024-01-06T04:46:02;8.30;99.90
6581;DHT22;3324;50.796;7.228;2024-01-06T04:48:28;8.30;99.90
6581;DHT22;3324;50.796;7.228;2024-01-06T04:50:53;8.20;99.90
6581;DHT22;3324;50.796;7.228;2024-01-06T04:53:19;8.30;99.90
6581;DHT22;3324;50.796;7.228;2024-01-06T04:55:44;8.20;99.90
6581;DHT22;3324;50.796;7.228;2024-01-06T04:58:10;8.20;99.90
6581;DHT22;3324;50.796;7.228;2024-01-06T05:00:35;8.30;99.90
6581;DHT22;3324;50.796;7.228;2024-01-06T05:03:01;8.30;99.90
6581;DHT22;3324;50.796;7.228;2024-01-06T05:05:27;8.30;99.90
6581;DHT22;3324;50.796;7.228;2024-01-06T05:07:52;8.30;99.90
6581;DHT22;3324;50.796;7.228;2024-01-06T05:10:17;8.30;99.90
6581;DHT22;3324;50.796;7.228;2024-01-06T05:12:43;8.20;99.90
6581;DHT22;3324;50.796;7.228;2024-01-06T05:15:09;8.20;99.90
6581;DHT22;3324;50.796;7.228;2024-01-06T05:17:34;8.20;99.90
6581;DHT22;3324;50.796;7.228;2024-01-06T05:19:59;8.20;99.90
6581;DHT22;3324;50.796;7.228;2024-01-06T05:22:25;8.20;99.90
6581;DHT22;3324;50.796;7.228;2024-01-06T05:24:51;8.20;99.90
6581;DHT22;3324;50.796;7.228;2024-01-06T05:27:18;8.20;99.90
6581;DHT22;3324;50.796;7.228;2024-01-06T05:29:44;8.20;99.90
6581;DHT22;3324;50.796;7.228;2024-01-06T05:32:10;8.20;99.90
6581;DHT22;3324;50.796;7.228;2024-01-06T05:34:35;8.20;99.90
6581;DHT22;3324;50.796;7.228;2024-01-06T05:37:01;8.20;99.90
6581;DHT22;3324;50.796;7.228;2024-01-06T05:39:27;8.20;99.90
6581;DHT22;3324;50.796;7.228;2024-01-06T05:41:52;8.20;99.90
6581;DHT22;3324;50.796;7.228;2024-01-06T05:44:17;8.30;99.90
6581;DHT22;3324;50.796;7.228;2024-01-06T05:46:43;8.30;99.90
6581;DHT22;3324;50.796;7.228;2024-01-06T05:49:08;8.20;99.90
6581;DHT22;3324;50.796;7.228;2024-01-06T05:51:35;8.30;99.90
6581;DHT22;3324;50.796;7.228;2024-01-06T05:54:01;8.20;99.90
6581;DHT22;3324;50.796;7.228;2024-01-06T05:56:26;8.20;99.90
6581;DHT22;3324;50.796;7.228;2024-01-06T05:58:52;8.20;99.90
6581;DHT22;3324;50.796;7.228;2024-01-06T06:01:18;8.30;99.90
6581;DHT22;3324;50.796;7.228;2024-01-06T06:03:44;8.30;99.90
6581;DHT22;3324;50.796;7.228;2024-01-06T06:06:09;8.30;99.90
6581;DHT22;3324;50.796;7.228;2024-01-06T06:08:35;8.30;99.90
6581;DHT22;3324;50.796;7.228;2024-01-06T06:11:00;8.30;99.90
6581;DHT22;3324;50.796;7.228;2024-01-06T06:13:29;8.30;99.90
6581;DHT22;3324;50.796;7.228;2024-01-06T06:15:55;8.30;99.90
6581;DHT22;3324;50.796;7.228;2024-01-06T06:18:21;8.30;99.90
6581;DHT22;3324;50.796;7.228;2024-01-06T06:20:47;8.30;99.90
6581;DHT22;3324;50.796;7.228;2024-01-06T06:23:12;8.30;99.90
6581;DHT22;3324;50.796;7.228;2024-01-06T06:25:38;8.20;99.90
6581;DHT22;3324;50.796;7.228;2024-01-06T06:28:04;8.20;99.90
6581;DHT22;3324;50.796;7.228;2024-01-06T06:30:29;8.20;99.90
6581;DHT22;3324;50.796;7.228;2024-01-06T06:32:55;8.20;99.90
6581;DHT22;3324;50.796;7.228;2024-01-06T06:35:20;8.10;99.90
6581;DHT22;3324;50.796;7.228;2024-01-06T06:37:45;8.10;99.90
6581;DHT22;3324;50.796;7.228;2024-01-06T06:40:11;8.00;99.90
6581;DHT22;3324;50.796;7.228;2024-01-06T06:42:36;8.00;99.90
6581;DHT22;3324;50.796;7.228;2024-01-06T06:45:02;7.90;99.90
6581;DHT22;3324;50.796;7.228;2024-01-06T06:47:28;7.90;99.90
6581;DHT22;3324;50.796;7.228;2024-01-06T06:49:53;7.80;99.90
6581;DHT22;3324;50.796;7.228;2024-01-06T06:52:18;7.90;99.90
6581;DHT22;3324;50.796;7.228;2024-01-06T06:54:44;7.80;99.90
6581;DHT22;3324;50.796;7.228;2024-01-06T06:57:10;7.80;99.90
6581;DHT22;3324;50.796;7.228;2024-01-06T06:59:35;7.70;99.90
6581;DHT22;3324;50.796;7.228;2024-01-06T07:02:00;7.70;99.90
6581;DHT22;3324;50.796;7.228;2024-01-06T07:04:26;7.70;99.90
6581;DHT22;3324;50.796;7.228;2024-01-06T07:06:52;7.70;99.90
6581;DHT22;3324;50.796;7.228;2024-01-06T07:09:17;7.60;99.90
6581;DHT22;3324;50.796;7.228;2024-01-06T07:11:43;7.70;99.90
6581;DHT22;3324;50.796;7.228;2024-01-06T07:14:08;7.70;99.90
6581;DHT22;3324;50.796;7.228;2024-01-06T07:16:34;7.60;99.90
6581;DHT22;3324;50.796;7.228;2024-01-06T07:18:59;7.60;99.90
6581;DHT22;3324;50.796;7.228;2024-01-06T07:21:25;7.60;99.90
6581;DHT22;3324;50.796;7.228;2024-01-06T07:23:50;7.60;99.90
6581;DHT22;3324;50.796;7.228;2024-01-06T07:26:16;7.50;99.90
6581;DHT22;3324;50.796;7.228;2024-01-06T07:28:41;7.50;99.90
6581;DHT22;3324;50.796;7.228;2024-01-06T07:31:07;7.60;99.90
6581;DHT22;3324;50.796;7.228;2024-01-06T07:33:32;7.50;99.90
6581;DHT22;3324;50.796;7.228;2024-01-06T07:35:57;7.50;99.90
6581;DHT22;3324;50.796;7.228;2024-01-06T07:38:23;7.50;99.90
6581;DHT22;3324;50.796;7.228;2024-01-06T07:40:48;7.40;99.90
6581;DHT22;3324;50.796;7.228;2024-01-06T07:43:14;7.40;99.90
6581;DHT22;3324;50.796;7.228;2024-01-06T07:45:40;7.40;99.90
6581;DHT22;3324;50.796;7.228;2024-01-06T07:48:06;7.40;99.90
6581;DHT22;3324;50.796;7.228;2024-01-06T07:50:32;7.40;99.90
6581;DHT22;3324;50.796;7.228;2024-01-06T07:52:57;7.30;99.90
6581;DHT22;3324;50.796;7.228;2024-01-06T07:55:23;7.30;99.90
6581;DHT22;3324;50.796;7.228;2024-01-06T07:57:48;7.30;99.90
6581;DHT22;3324;50.796;7.228;2024-01-06T08:00:14;7.30;99.90
6581;DHT22;3324;50.796;7.228;2024-01-06T08:02:42;7.30;99.90
6581;DHT22;3324;50.796;7.228;2024-01-06T08:05:10;7.20;99.90
6581;DHT22;3324;50.796;7.228;2024-01-06T08:07:36;7.30;99.90
6581;DHT22;3324;50.796;7.228;2024-01-06T08:10:02;7.20;99.90
6581;DHT22;3324;50.796;7.228;2024-01-06T08:12:30;7.30;99.90
6581;DHT22;3324;50.796;7.228;2024-01-06T08:14:56;7.20;99.90
6581;DHT22;3324;50.796;7.228;2024-01-06T08:17:21;7.30;99.90
6581;DHT22;3324;50.796;7.228;2024-01-06T08:19:47;7.20;99.90
6581;DHT22;3324;50.796;7.228;2024-01-06T08:22:13;7.20;99.90
6581;DHT22;3324;50.796;7.228;2024-01-06T08:24:38;7.30;99.90
6581;DHT22;3324;50.796;7.228;2024-01-06T08:27:04;7.30;99.90
6581;DHT22;3324;50.796;7.228;2024-01-06T08:29:30;7.20;99.90
6581;DHT22;3324;50.796;7.228;2024-01-06T08:31:55;7.20;99.90
6581;DHT22;3324;50.796;7.228;2024-01-06T08:34:21;7.20;99.90
6581;DHT22;3324;50.796;7.228;2024-01-06T08:36:46;7.20;99.90
6581;DHT22;3324;50.796;7.228;2024-01-06T08:39:12;7.20;99.90
6581;DHT22;3324;50.796;7.228;2024-01-06T08:41:38;7.20;99.90
6581;DHT22;3324;50.796;7.228;2024-01-06T08:44:03;7.10;99.90
6581;DHT22;3324;50.796;7.228;2024-01-06T08:46:29;7.10;99.90
6581;DHT22;3324;50.796;7.228;2024-01-06T08:48:56;7.20;99.90
6581;DHT22;3324;50.796;7.228;2024-01-06T08:51:21;7.20;99.90
6581;DHT22;3324;50.796;7.228;2024-01-06T08:53:47;7.30;99.90
6581;DHT22;3324;50.796;7.228;2024-01-06T08:56:12;7.30;99.90
6581;DHT22;3324;50.796;7.228;2024-01-06T08:58:38;7.30;99.90
6581;DHT22;3324;50.796;7.228;2024-01-06T09:01:03;7.30;99.90
6581;DHT22;3324;50.796;7.228;2024-01-06T09:03:29;7.30;99.90
6581;DHT22;3324;50.796;7.228;2024-01-06T09:06:07;7.20;99.90
6581;DHT22;3324;50.796;7.228;2024-01-06T09:08:35;7.20;99.90
6581;DHT22;3324;50.796;7.228;2024-01-06T09:11:01;7.30;99.90
6581;DHT22;3324;50.796;7.228;2024-01-06T09:13:26;7.30;99.90
6581;DHT22;3324;50.796;7.228;2024-01-06T09:15:52;7.30;99.90
6581;DHT22;3324;50.796;7.228;2024-01-06T09:18:17;7.30;99.90
6581;DHT22;3324;50.796;7.228;2024-01-06T09:20:43;7.30;99.90
6581;DHT22;3324;50.796;7.228;2024-01-06T09:23:08;7.30;99.90
6581;DHT22;3324;50.796;7.228;2024-01-06T09:25:35;7.30;99.90
6581;DHT22;3324;50.796;7.228;2024-01-06T09:28:01;7.40;99.90
6581;DHT22;3324;50.796;7.228;2024-01-06T09:30:26;7.30;99.90
6581;DHT22;3324;50.796;7.228;2024-01-06T09:32:52;7.40;99.90
6581;DHT22;3324;50.796;7.228;2024-01-06T09:35:18;7.40;99.90
6581;DHT22;3324;50.796;7.228;2024-01-06T09:37:43;7.40;99.90
6581;DHT22;3324;50.796;7.228;2024-01-06T09:40:11;7.30;99.90
6581;DHT22;3324;50.796;7.228;2024-01-06T09:42:36;7.40;99.90
6581;DHT22;3324;50.796;7.228;2024-01-06T09:45:02;7.30;99.90
6581;DHT22;3324;50.796;7.228;2024-01-06T09:47:28;7.30;99.90
6581;DHT22;3324;50.796;7.228;2024-01-06T09:49:57;7.30;99.90
6581;DHT22;3324;50.796;7.228;2024-01-06T09:52:26;7.30;99.90
6581;DHT22;3324;50.796;7.228;2024-01-06T09:54:52;7.40;99.90
6581;DHT22;3324;50.796;7.228;2024-01-06T09:57:19;7.40;99.90
6581;DHT22;3324;50.796;7.228;2024-01-06T09:59:45;7.40;99.90
6581;DHT22;3324;50.796;7.228;2024-01-06T10:02:12;7.50;99.90
6581;DHT22;3324;50.796;7.228;2024-01-06T10:04:39;7.70;99.90
6581;DHT22;3324;50.796;7.228;2024-01-06T10:07:04;7.90;99.90
6581;DHT22;3324;50.796;7.228;2024-01-06T10:09:30;8.00;99.90
6581;DHT22;3324;50.796;7.228;2024-01-06T10:11:56;8.00;99.90
6581;DHT22;3324;50.796;7.228;2024-01-06T10:14:23;7.90;99.90
6581;DHT22;3324;50.796;7.228;2024-01-06T10:16:49;7.90;99.90
6581;DHT22;3324;50.796;7.228;2024-01-06T10:19:15;7.80;99.90
6581;DHT22;3324;50.796;7.228;2024-01-06T10:21:40;7.90;99.90
6581;DHT22;3324;50.796;7.228;2024-01-06T10:24:07;8.00;99.90
6581;DHT22;3324;50.796;7.228;2024-01-06T10:26:33;8.10;99.90
6581;DHT22;3324;50.796;7.228;2024-01-06T10:28:58;8.00;99.90
6581;DHT22;3324;50.796;7.228;2024-01-06T10:31:24;7.90;99.90
6581;DHT22;3324;50.796;7.228;2024-01-06T10:33:50;7.90;99.90
6581;DHT22;3324;50.796;7.228;2024-01-06T10:36:16;7.80;99.90
6581;DHT22;3324;50.796;7.228;2024-01-06T10:38:41;7.70;99.90
6581;DHT22;3324;50.796;7.228;2024-01-06T10:41:07;7.80;99.90
6581;DHT22;3324;50.796;7.228;2024-01-06T10:43:35;7.70;99.90
6581;DHT22;3324;50.796;7.228;2024-01-06T10:46:03;7.60;99.90
6581;DHT22;3324;50.796;7.228;2024-01-06T10:48:33;7.60;99.90
6581;DHT22;3324;50.796;7.228;2024-01-06T10:50:59;7.60;99.90
6581;DHT22;3324;50.796;7.228;2024-01-06T10:53:28;7.60;99.90
6581;DHT22;3324;50.796;7.228;2024-01-06T10:55:55;7.60;99.90
6581;DHT22;3324;50.796;7.228;2024-01-06T10:58:22;7.50;99.90
6581;DHT22;3324;50.796;7.228;2024-01-06T11:00:48;7.50;99.90
6581;DHT22;3324;50.796;7.228;2024-01-06T11:03:14;7.40;99.90
6581;DHT22;3324;50.796;7.228;2024-01-06T11:05:40;7.40;99.90
6581;DHT22;3324;50.796;7.228;2024-01-06T11:08:06;7.40;99.90
6581;DHT22;3324;50.796;7.228;2024-01-06T11:10:32;7.40;99.90
6581;DHT22;3324;50.796;7.228;2024-01-06T11:13:11;7.40;99.90
6581;DHT22;3324;50.796;7.228;2024-01-06T11:18:06;7.40;99.90
6581;DHT22;3324;50.796;7.228;2024-01-06T11:20:31;7.40;99.90
6581;DHT22;3324;50.796;7.228;2024-01-06T11:23:17;7.40;99.90
6581;DHT22;3324;50.796;7.228;2024-01-06T11:25:42;7.40;99.90
6581;DHT22;3324;50.796;7.228;2024-01-06T11:28:08;7.30;99.90
6581;DHT22;3324;50.796;7.228;2024-01-06T11:30:34;7.30;99.90
6581;DHT22;3324;50.796;7.228;2024-01-06T11:33:00;7.30;99.90
6581;DHT22;3324;50.796;7.228;2024-01-06T11:35:27;7.30;99.90
6581;DHT22;3324;50.796;7.228;2024-01-06T11:37:54;7.30;99.90
6581;DHT22;3324;50.796;7.228;2024-01-06T11:42:46;7.20;99.90
6581;DHT22;3324;50.796;7.228;2024-01-06T11:45:12;7.20;99.90
6581;DHT22;3324;50.796;7.228;2024-01-06T11:47:38;7.20;99.90
6581;DHT22;3324;50.796;7.228;2024-01-06T11:50:04;7.20;99.90
6581;DHT22;3324;50.796;7.228;2024-01-06T11:52:33;7.20;99.90
6581;DHT22;3324;50.796;7.228;2024-01-06T11:54:59;7.20;99.90
6581;DHT22;3324;50.796;7.228;2024-01-06T11:57:28;7.20;99.90
6581;DHT22;3324;50.796;7.228;2024-01-06T11:59:54;7.30;99.90
6581;DHT22;3324;50.796;7.228;2024-01-06T12:02:19;7.30;99.90
6581;DHT22;3324;50.796;7.228;2024-01-06T12:04:50;7.20;99.90
6581;DHT22;3324;50.796;7.228;2024-01-06T12:07:16;7.20;99.90
6581;DHT22;3324;50.796;7.228;2024-01-06T12:09:42;7.20;99.90
6581;DHT22;3324;50.796;7.228;2024-01-06T12:12:08;7.20;99.90
6581;DHT22;3324;50.796;7.228;2024-01-06T12:14:34;7.20;99.90
6581;DHT22;3324;50.796;7.228;2024-01-06T12:17:00;7.20;99.90
6581;DHT22;3324;50.796;7.228;2024-01-06T12:19:31;7.20;99.90
6581;DHT22;3324;50.796;7.228;2024-01-06T12:21:57;7.20;99.90
6581;DHT22;3324;50.796;7.228;2024-01-06T12:24:22;7.20;99.90
6581;DHT22;3324;50.796;7.228;2024-01-06T12:26:48;7.20;99.90
6581;DHT22;3324;50.796;7.228;2024-01-06T12:29:14;7.20;99.90
6581;DHT22;3324;50.796;7.228;2024-01-06T12:31:40;7.10;99.90
6581;DHT22;3324;50.796;7.228;2024-01-06T12:34:06;7.10;99.90
6581;DHT22;3324;50.796;7.228;2024-01-06T12:36:34;7.10;99.90
6581;DHT22;3324;50.796;7.228;2024-01-06T12:38:59;7.20;99.90
6581;DHT22;3324;50.796;7.228;2024-01-06T12:41:27;7.20;99.90
6581;DHT22;3324;50.796;7.228;2024-01-06T12:43:53;7.20;99.90
6581;DHT22;3324;50.796;7.228;2024-01-06T12:46:18;7.30;99.90
6581;DHT22;3324;50.796;7.228;2024-01-06T12:48:44;7.30;99.90
6581;DHT22;3324;50.796;7.228;2024-01-06T12:51:09;7.20;99.90
6581;DHT22;3324;50.796;7.228;2024-01-06T12:53:35;7.20;99.90
6581;DHT22;3324;50.796;7.228;2024-01-06T12:56:01;7.20;99.90
6581;DHT22;3324;50.796;7.228;2024-01-06T12:58:26;7.20;99.90
6581;DHT22;3324;50.796;7.228;2024-01-06T13:00:52;7.10;99.90
6581;DHT22;3324;50.796;7.228;2024-01-06T13:03:17;7.10;99.90
6581;DHT22;3324;50.796;7.228;2024-01-06T13:05:55;7.10;99.90
6581;DHT22;3324;50.796;7.228;2024-01-06T13:08:20;7.10;99.90
6581;DHT22;3324;50.796;7.228;2024-01-06T13:10:46;7.10;99.90
6581;DHT22;3324;50.796;7.228;2024-01-06T13:13:11;7.10;99.90
6581;DHT22;3324;50.796;7.228;2024-01-06T13:15:37;7.20;99.90
6581;DHT22;3324;50.796;7.228;2024-01-06T13:18:02;7.10;99.90
6581;DHT22;3324;50.796;7.228;2024-01-06T13:20:28;7.10;99.90
6581;DHT22;3324;50.796;7.228;2024-01-06T13:22:53;7.00;99.90
6581;DHT22;3324;50.796;7.228;2024-01-06T13:25:19;7.10;99.90
6581;DHT22;3324;50.796;7.228;2024-01-06T13:27:45;7.10;99.90
6581;DHT22;3324;50.796;7.228;2024-01-06T13:30:10;7.20;99.90
6581;DHT22;3324;50.796;7.228;2024-01-06T13:32:38;7.50;99.90
6581;DHT22;3324;50.796;7.228;2024-01-06T13:35:04;7.50;99.90
6581;DHT22;3324;50.796;7.228;2024-01-06T13:37:31;7.60;99.90
6581;DHT22;3324;50.796;7.228;2024-01-06T13:39:56;7.50;99.90
6581;DHT22;3324;50.796;7.228;2024-01-06T13:42:22;7.60;99.90
6581;DHT22;3324;50.796;7.228;2024-01-06T13:44:47;7.50;99.90
6581;DHT22;3324;50.796;7.228;2024-01-06T13:47:16;7.50;99.90
6581;DHT22;3324;50.796;7.228;2024-01-06T13:49:41;7.40;99.90
6581;DHT22;3324;50.796;7.228;2024-01-06T13:52:07;7.30;99.90
6581;DHT22;3324;50.796;7.228;2024-01-06T13:54:35;7.20;99.90
6581;DHT22;3324;50.796;7.228;2024-01-06T13:57:00;7.20;99.90
6581;DHT22;3324;50.796;7.228;2024-01-06T13:59:26;7.20;99.90
6581;DHT22;3324;50.796;7.228;2024-01-06T14:01:52;7.30;99.90
6581;DHT22;3324;50.796;7.228;2024-01-06T14:04:17;7.30;99.90
6581;DHT22;3324;50.796;7.228;2024-01-06T14:06:43;7.30;99.90
6581;DHT22;3324;50.796;7.228;2024-01-06T14:09:08;7.40;99.90
6581;DHT22;3324;50.796;7.228;2024-01-06T14:11:34;7.20;99.90
6581;DHT22;3324;50.796;7.228;2024-01-06T14:14:00;7.10;99.90
6581;DHT22;3324;50.796;7.228;2024-01-06T14:16:25;7.10;99.90
6581;DHT22;3324;50.796;7.228;2024-01-06T14:18:51;7.10;99.90
6581;DHT22;3324;50.796;7.228;2024-01-06T14:21:16;7.10;99.90
6581;DHT22;3324;50.796;7.228;2024-01-06T14:23:45;7.20;99.90
6581;DHT22;3324;50.796;7.228;2024-01-06T14:26:11;7.20;99.90
6581;DHT22;3324;50.796;7.228;2024-01-06T14:28:36;7.40;99.90
6581;DHT22;3324;50.796;7.228;2024-01-06T14:31:02;7.50;99.90
6581;DHT22;3324;50.796;7.228;2024-01-06T14:33:27;7.30;99.90
6581;DHT22;3324;50.796;7.228;2024-01-06T14:35:56;7.20;99.90
6581;DHT22;3324;50.796;7.228;2024-01-06T14:38:22;7.10;99.90
6581;DHT22;3324;50.796;7.228;2024-01-06T14:40:47;7.00;99.90
6581;DHT22;3324;50.796;7.228;2024-01-06T14:43:13;7.00;99.90
6581;DHT22;3324;50.796;7.228;2024-01-06T14:45:38;6.90;99.90
6581;DHT22;3324;50.796;7.228;2024-01-06T14:48:04;6.80;99.90
6581;DHT22;3324;50.796;7.228;2024-01-06T14:50:30;6.80;99.90
6581;DHT22;3324;50.796;7.228;2024-01-06T14:52:55;6.80;99.90
6581;DHT22;3324;50.796;7.228;2024-01-06T14:55:21;6.70;99.90
6581;DHT22;3324;50.796;7.228;2024-01-06T14:57:46;6.70;99.90
6581;DHT22;3324;50.796;7.228;2024-01-06T15:00:12;6.70;99.90
6581;DHT22;3324;50.796;7.228;2024-01-06T15:02:38;6.60;99.90
6581;DHT22;3324;50.796;7.228;2024-01-06T15:05:03;6.60;99.90
6581;DHT22;3324;50.796;7.228;2024-01-06T15:07:30;6.60;99.90
6581;DHT22;3324;50.796;7.228;2024-01-06T15:10:00;6.60;99.90
6581;DHT22;3324;50.796;7.228;2024-01-06T15:12:26;6.50;99.90
6581;DHT22;3324;50.796;7.228;2024-01-06T15:14:52;6.60;99.90
6581;DHT22;3324;50.796;7.228;2024-01-06T15:17:17;6.50;99.90
6581;DHT22;3324;50.796;7.228;2024-01-06T15:19:44;6.50;99.90
6581;DHT22;3324;50.796;7.228;2024-01-06T15:22:10;6.50;99.90
6581;DHT22;3324;50.796;7.228;2024-01-06T15:24:35;6.60;99.90
6581;DHT22;3324;50.796;7.228;2024-01-06T15:27:01;6.60;99.90
6581;DHT22;3324;50.796;7.228;2024-01-06T15:29:27;6.50;99.90
6581;DHT22;3324;50.796;7.228;2024-01-06T15:31:52;6.50;99.90
6581;DHT22;3324;50.796;7.228;2024-01-06T15:34:25;6.50;99.90
6581;DHT22;3324;50.796;7.228;2024-01-06T15:36:52;6.40;99.90
6581;DHT22;3324;50.796;7.228;2024-01-06T15:39:17;6.40;99.90
6581;DHT22;3324;50.796;7.228;2024-01-06T15:41:43;6.40;99.90
6581;DHT22;3324;50.796;7.228;2024-01-06T15:44:08;6.40;99.90
6581;DHT22;3324;50.796;7.228;2024-01-06T15:46:34;6.40;99.90
6581;DHT22;3324;50.796;7.228;2024-01-06T15:48:59;6.40;99.90
6581;DHT22;3324;50.796;7.228;2024-01-06T15:51:25;6.40;99.90
6581;DHT22;3324;50.796;7.228;2024-01-06T15:53:51;6.40;99.90
6581;DHT22;3324;50.796;7.228;2024-01-06T15:56:17;6.40;99.90
6581;DHT22;3324;50.796;7.228;2024-01-06T15:58:42;6.40;99.90
6581;DHT22;3324;50.796;7.228;2024-01-06T16:01:08;6.40;99.90
6581;DHT22;3324;50.796;7.228;2024-01-06T16:03:33;6.40;99.90
6581;DHT22;3324;50.796;7.228;2024-01-06T16:05:59;6.40;99.90
6581;DHT22;3324;50.796;7.228;2024-01-06T16:08:25;6.30;99.90
6581;DHT22;3324;50.796;7.228;2024-01-06T16:10:50;6.30;99.90
6581;DHT22;3324;50.796;7.228;2024-01-06T16:13:16;6.30;99.90
6581;DHT22;3324;50.796;7.228;2024-01-06T16:15:43;6.30;99.90
6581;DHT22;3324;50.796;7.228;2024-01-06T16:18:09;6.30;99.90